South West Cape, New Zealand
Current Conditions -  °F | °C
As of 2:30 PM on Saturday 22 Nov 2014 (Local Time) from NZCH Reporting Station
Few Clouds Few Clouds  
Wind Chill: 66°   Ceiling: Unl
Heat Index: 66°   Visibility: 6mi
Dew Point: 54°   Wind: 24mph
Humidity: 64%   Direction: 200°SSW
Pressure: 29.44"   Gusts: NA
Location:  47.28°S, 167.44°E
Report Text: NZCH 220230Z AUTO 20021KT 9999 FEW100/// 19/12 Q0997 NOSIG
Loading
Personal Weather Stations






























Interactive Weather Map New forecast layout! Learn more

10-Day Weather Forecast

Advertisements
Track Severe Weather on mobile